sensor_id;sensor_type;location;lat;lon;timestamp;temperature;humidity
45969;DHT22;31676;40.444;-3.668;2023-03-23T00:00:43;23.30;76.60
45969;DHT22;31676;40.444;-3.668;2023-03-23T00:03:09;23.30;76.50
45969;DHT22;31676;40.444;-3.668;2023-03-23T00:05:35;23.30;76.60
45969;DHT22;31676;40.444;-3.668;2023-03-23T00:08:02;23.30;76.60
45969;DHT22;31676;40.444;-3.668;2023-03-23T00:10:28;23.30;76.60
45969;DHT22;31676;40.444;-3.668;2023-03-23T00:12:58;23.30;77.20
45969;DHT22;31676;40.444;-3.668;2023-03-23T00:15:27;23.30;76.60
45969;DHT22;31676;40.444;-3.668;2023-03-23T00:18:01;23.30;76.60
45969;DHT22;31676;40.444;-3.668;2023-03-23T00:20:30;23.30;76.60
45969;DHT22;31676;40.444;-3.668;2023-03-23T00:23:02;23.30;76.60
45969;DHT22;31676;40.444;-3.668;2023-03-23T00:25:29;23.30;76.60
45969;DHT22;31676;40.444;-3.668;2023-03-23T00:27:55;23.30;76.60
45969;DHT22;31676;40.444;-3.668;2023-03-23T00:30:21;23.30;76.60
45969;DHT22;31676;40.444;-3.668;2023-03-23T00:32:47;23.30;76.60
45969;DHT22;31676;40.444;-3.668;2023-03-23T00:35:13;23.30;76.60
45969;DHT22;31676;40.444;-3.668;2023-03-23T00:37:39;23.30;77.20
45969;DHT22;31676;40.444;-3.668;2023-03-23T00:40:05;23.30;76.60
45969;DHT22;31676;40.444;-3.668;2023-03-23T00:42:34;23.30;76.60
45969;DHT22;31676;40.444;-3.668;2023-03-23T00:45:02;23.30;76.60
45969;DHT22;31676;40.444;-3.668;2023-03-23T00:47:29;23.30;76.60
45969;DHT22;31676;40.444;-3.668;2023-03-23T00:49:55;23.30;76.60
45969;DHT22;31676;40.444;-3.668;2023-03-23T00:52:21;23.30;76.70
45969;DHT22;31676;40.444;-3.668;2023-03-23T00:54:47;23.30;76.60
45969;DHT22;31676;40.444;-3.668;2023-03-23T00:57:13;23.30;76.60
45969;DHT22;31676;40.444;-3.668;2023-03-23T00:59:38;23.20;76.60
45969;DHT22;31676;40.444;-3.668;2023-03-23T01:02:04;23.30;76.70
45969;DHT22;31676;40.444;-3.668;2023-03-23T01:04:30;23.20;76.60
45969;DHT22;31676;40.444;-3.668;2023-03-23T01:06:57;23.30;76.70
45969;DHT22;31676;40.444;-3.668;2023-03-23T01:09:25;23.20;76.60
45969;DHT22;31676;40.444;-3.668;2023-03-23T01:11:52;23.20;76.60
45969;DHT22;31676;40.444;-3.668;2023-03-23T01:14:19;23.20;76.60
45969;DHT22;31676;40.444;-3.668;2023-03-23T01:16:45;23.20;76.70
45969;DHT22;31676;40.444;-3.668;2023-03-23T01:19:11;23.20;76.60
45969;DHT22;31676;40.444;-3.668;2023-03-23T01:21:37;23.20;76.70
45969;DHT22;31676;40.444;-3.668;2023-03-23T01:24:03;23.20;76.60
45969;DHT22;31676;40.444;-3.668;2023-03-23T01:26:28;23.20;76.60
45969;DHT22;31676;40.444;-3.668;2023-03-23T01:28:54;23.20;76.60
45969;DHT22;31676;40.444;-3.668;2023-03-23T01:31:21;23.20;76.60
45969;DHT22;31676;40.444;-3.668;2023-03-23T01:33:47;23.20;76.70
45969;DHT22;31676;40.444;-3.668;2023-03-23T01:36:17;23.20;76.70
45969;DHT22;31676;40.444;-3.668;2023-03-23T01:38:44;23.20;76.70
45969;DHT22;31676;40.444;-3.668;2023-03-23T01:41:10;23.20;76.70
45969;DHT22;31676;40.444;-3.668;2023-03-23T01:43:36;23.20;76.70
45969;DHT22;31676;40.444;-3.668;2023-03-23T01:46:02;23.20;76.70
45969;DHT22;31676;40.444;-3.668;2023-03-23T01:48:29;23.20;76.70
45969;DHT22;31676;40.444;-3.668;2023-03-23T01:50:57;23.20;76.70
45969;DHT22;31676;40.444;-3.668;2023-03-23T01:53:25;23.20;76.70
45969;DHT22;31676;40.444;-3.668;2023-03-23T01:55:52;23.20;76.70
45969;DHT22;31676;40.444;-3.668;2023-03-23T01:58:23;23.20;76.70
45969;DHT22;31676;40.444;-3.668;2023-03-23T02:00:51;23.20;76.70
45969;DHT22;31676;40.444;-3.668;2023-03-23T02:03:19;23.20;76.70
45969;DHT22;31676;40.444;-3.668;2023-03-23T02:05:45;23.20;76.70
45969;DHT22;31676;40.444;-3.668;2023-03-23T02:08:11;23.20;76.70
45969;DHT22;31676;40.444;-3.668;2023-03-23T02:10:38;23.20;76.70
45969;DHT22;31676;40.444;-3.668;2023-03-23T02:13:05;23.20;76.70
45969;DHT22;31676;40.444;-3.668;2023-03-23T02:28:20;23.10;76.70
45969;DHT22;31676;40.444;-3.668;2023-03-23T02:35:50;23.10;76.70
45969;DHT22;31676;40.444;-3.668;2023-03-23T02:38:19;23.10;76.70
45969;DHT22;31676;40.444;-3.668;2023-03-23T02:40:47;23.10;76.70
45969;DHT22;31676;40.444;-3.668;2023-03-23T02:43:15;23.10;76.70
45969;DHT22;31676;40.444;-3.668;2023-03-23T02:45:42;23.10;76.70
45969;DHT22;31676;40.444;-3.668;2023-03-23T02:48:09;23.10;76.70
45969;DHT22;31676;40.444;-3.668;2023-03-23T02:50:36;23.10;76.70
45969;DHT22;31676;40.444;-3.668;2023-03-23T02:53:03;23.10;76.70
45969;DHT22;31676;40.444;-3.668;2023-03-23T02:55:31;23.10;76.70
45969;DHT22;31676;40.444;-3.668;2023-03-23T02:57:57;23.10;76.70
45969;DHT22;31676;40.444;-3.668;2023-03-23T03:00:25;23.10;76.70
45969;DHT22;31676;40.444;-3.668;2023-03-23T03:02:54;23.10;76.70
45969;DHT22;31676;40.444;-3.668;2023-03-23T03:07:53;23.10;76.70
45969;DHT22;31676;40.444;-3.668;2023-03-23T03:10:23;23.10;76.70
45969;DHT22;31676;40.444;-3.668;2023-03-23T03:15:22;23.10;76.70
45969;DHT22;31676;40.444;-3.668;2023-03-23T03:17:51;23.10;76.70
45969;DHT22;31676;40.444;-3.668;2023-03-23T03:20:19;23.10;76.70
45969;DHT22;31676;40.444;-3.668;2023-03-23T03:22:45;23.10;76.70
45969;DHT22;31676;40.444;-3.668;2023-03-23T03:25:12;23.10;76.80
45969;DHT22;31676;40.444;-3.668;2023-03-23T03:27:40;23.10;76.70
45969;DHT22;31676;40.444;-3.668;2023-03-23T03:30:06;23.10;76.80
45969;DHT22;31676;40.444;-3.668;2023-03-23T03:32:37;23.10;76.70
45969;DHT22;31676;40.444;-3.668;2023-03-23T03:35:04;23.10;76.70
45969;DHT22;31676;40.444;-3.668;2023-03-23T03:37:34;23.10;76.70
45969;DHT22;31676;40.444;-3.668;2023-03-23T03:40:05;23.00;76.70
45969;DHT22;31676;40.444;-3.668;2023-03-23T03:42:37;23.10;76.80
45969;DHT22;31676;40.444;-3.668;2023-03-23T03:45:02;23.10;76.80
45969;DHT22;31676;40.444;-3.668;2023-03-23T03:47:28;23.00;76.70
45969;DHT22;31676;40.444;-3.668;2023-03-23T03:49:54;23.00;76.70
45969;DHT22;31676;40.444;-3.668;2023-03-23T03:52:20;23.00;76.70
45969;DHT22;31676;40.444;-3.668;2023-03-23T03:54:46;23.00;76.70
45969;DHT22;31676;40.444;-3.668;2023-03-23T03:57:12;23.00;76.70
45969;DHT22;31676;40.444;-3.668;2023-03-23T03:59:38;23.00;76.70
45969;DHT22;31676;40.444;-3.668;2023-03-23T04:02:04;23.00;76.70
45969;DHT22;31676;40.444;-3.668;2023-03-23T04:04:29;23.00;76.70
45969;DHT22;31676;40.444;-3.668;2023-03-23T04:06:55;23.00;76.70
45969;DHT22;31676;40.444;-3.668;2023-03-23T04:09:22;23.00;76.70
45969;DHT22;31676;40.444;-3.668;2023-03-23T04:11:48;23.00;76.70
45969;DHT22;31676;40.444;-3.668;2023-03-23T04:14:14;23.00;76.70
45969;DHT22;31676;40.444;-3.668;2023-03-23T04:16:39;23.00;76.70
45969;DHT22;31676;40.444;-3.668;2023-03-23T04:19:06;23.00;76.80
45969;DHT22;31676;40.444;-3.668;2023-03-23T04:21:32;23.00;76.70
45969;DHT22;31676;40.444;-3.668;2023-03-23T04:23:57;23.00;76.70
45969;DHT22;31676;40.444;-3.668;2023-03-23T04:26:25;23.00;76.70
45969;DHT22;31676;40.444;-3.668;2023-03-23T04:28:51;23.00;76.70
45969;DHT22;31676;40.444;-3.668;2023-03-23T04:31:17;23.00;76.70
45969;DHT22;31676;40.444;-3.668;2023-03-23T04:33:43;23.00;76.70
45969;DHT22;31676;40.444;-3.668;2023-03-23T04:36:08;23.00;76.70
45969;DHT22;31676;40.444;-3.668;2023-03-23T04:38:34;23.00;76.70
45969;DHT22;31676;40.444;-3.668;2023-03-23T04:41:00;23.00;76.70
45969;DHT22;31676;40.444;-3.668;2023-03-23T04:43:27;23.00;76.70
45969;DHT22;31676;40.444;-3.668;2023-03-23T04:45:54;23.00;76.70
45969;DHT22;31676;40.444;-3.668;2023-03-23T04:48:23;23.00;76.70
45969;DHT22;31676;40.444;-3.668;2023-03-23T04:50:48;23.00;76.80
45969;DHT22;31676;40.444;-3.668;2023-03-23T04:53:16;22.90;76.70
45969;DHT22;31676;40.444;-3.668;2023-03-23T04:55:43;22.90;76.70
45969;DHT22;31676;40.444;-3.668;2023-03-23T04:58:09;22.90;76.70
45969;DHT22;31676;40.444;-3.668;2023-03-23T05:00:35;23.00;76.70
45969;DHT22;31676;40.444;-3.668;2023-03-23T05:03:01;23.00;76.80
45969;DHT22;31676;40.444;-3.668;2023-03-23T05:05:27;22.90;76.70
45969;DHT22;31676;40.444;-3.668;2023-03-23T05:07:55;23.00;76.80
45969;DHT22;31676;40.444;-3.668;2023-03-23T05:10:21;22.90;76.70
45969;DHT22;31676;40.444;-3.668;2023-03-23T05:12:48;22.90;76.70
45969;DHT22;31676;40.444;-3.668;2023-03-23T05:15:14;23.00;76.80
45969;DHT22;31676;40.444;-3.668;2023-03-23T05:17:41;22.90;76.70
45969;DHT22;31676;40.444;-3.668;2023-03-23T05:20:10;22.90;76.70
45969;DHT22;31676;40.444;-3.668;2023-03-23T05:22:37;22.90;76.70
45969;DHT22;31676;40.444;-3.668;2023-03-23T05:25:04;22.90;76.80
45969;DHT22;31676;40.444;-3.668;2023-03-23T05:27:30;22.90;76.70
45969;DHT22;31676;40.444;-3.668;2023-03-23T05:29:58;22.90;76.70
45969;DHT22;31676;40.444;-3.668;2023-03-23T05:32:24;22.90;76.70
45969;DHT22;31676;40.444;-3.668;2023-03-23T05:34:56;22.90;76.70
45969;DHT22;31676;40.444;-3.668;2023-03-23T05:37:23;22.90;76.70
45969;DHT22;31676;40.444;-3.668;2023-03-23T05:39:48;22.90;76.80
45969;DHT22;31676;40.444;-3.668;2023-03-23T05:42:22;22.90;76.70
45969;DHT22;31676;40.444;-3.668;2023-03-23T05:44:48;22.90;76.80
45969;DHT22;31676;40.444;-3.668;2023-03-23T05:47:14;22.90;76.70
45969;DHT22;31676;40.444;-3.668;2023-03-23T05:49:40;22.90;76.80
45969;DHT22;31676;40.444;-3.668;2023-03-23T05:52:06;22.90;76.80
45969;DHT22;31676;40.444;-3.668;2023-03-23T05:54:32;22.90;76.70
45969;DHT22;31676;40.444;-3.668;2023-03-23T05:56:59;22.90;76.70
45969;DHT22;31676;40.444;-3.668;2023-03-23T05:59:25;22.90;76.80
45969;DHT22;31676;40.444;-3.668;2023-03-23T06:01:51;22.90;76.70
45969;DHT22;31676;40.444;-3.668;2023-03-23T06:04:19;22.80;76.70
45969;DHT22;31676;40.444;-3.668;2023-03-23T06:06:44;22.90;76.70
45969;DHT22;31676;40.444;-3.668;2023-03-23T06:09:10;22.90;76.80
45969;DHT22;31676;40.444;-3.668;2023-03-23T06:11:36;22.90;76.70
45969;DHT22;31676;40.444;-3.668;2023-03-23T06:14:02;22.90;76.70
45969;DHT22;31676;40.444;-3.668;2023-03-23T06:16:28;22.80;76.70
45969;DHT22;31676;40.444;-3.668;2023-03-23T06:18:54;22.80;76.70
45969;DHT22;31676;40.444;-3.668;2023-03-23T06:21:19;22.80;76.70
45969;DHT22;31676;40.444;-3.668;2023-03-23T06:23:47;22.90;76.70
45969;DHT22;31676;40.444;-3.668;2023-03-23T06:26:13;22.90;76.70
45969;DHT22;31676;40.444;-3.668;2023-03-23T06:28:41;22.90;76.80
45969;DHT22;31676;40.444;-3.668;2023-03-23T06:31:07;22.90;76.80
45969;DHT22;31676;40.444;-3.668;2023-03-23T06:33:34;22.80;76.70
45969;DHT22;31676;40.444;-3.668;2023-03-23T06:36:01;22.90;76.80
45969;DHT22;31676;40.444;-3.668;2023-03-23T06:38:26;22.90;76.80
45969;DHT22;31676;40.444;-3.668;2023-03-23T06:40:53;22.80;76.70
45969;DHT22;31676;40.444;-3.668;2023-03-23T06:43:18;22.80;76.70
45969;DHT22;31676;40.444;-3.668;2023-03-23T06:45:44;22.80;76.70
45969;DHT22;31676;40.444;-3.668;2023-03-23T06:48:10;22.80;76.70
45969;DHT22;31676;40.444;-3.668;2023-03-23T06:50:36;22.80;76.70
45969;DHT22;31676;40.444;-3.668;2023-03-23T06:53:01;22.80;76.70
45969;DHT22;31676;40.444;-3.668;2023-03-23T06:55:27;22.80;76.70
45969;DHT22;31676;40.444;-3.668;2023-03-23T06:57:53;22.80;76.70
45969;DHT22;31676;40.444;-3.668;2023-03-23T07:00:18;22.80;76.70
45969;DHT22;31676;40.444;-3.668;2023-03-23T07:02:44;22.80;76.70
45969;DHT22;31676;40.444;-3.668;2023-03-23T07:05:10;22.80;76.70
45969;DHT22;31676;40.444;-3.668;2023-03-23T07:07:36;22.80;76.70
45969;DHT22;31676;40.444;-3.668;2023-03-23T07:10:03;22.80;76.70
45969;DHT22;31676;40.444;-3.668;2023-03-23T07:12:29;22.80;76.70
45969;DHT22;31676;40.444;-3.668;2023-03-23T07:14:55;22.80;76.70
45969;DHT22;31676;40.444;-3.668;2023-03-23T07:17:21;22.80;76.70
45969;DHT22;31676;40.444;-3.668;2023-03-23T07:19:46;22.80;76.70
45969;DHT22;31676;40.444;-3.668;2023-03-23T07:22:12;22.80;76.70
45969;DHT22;31676;40.444;-3.668;2023-03-23T07:24:38;22.80;76.70
45969;DHT22;31676;40.444;-3.668;2023-03-23T07:27:03;22.70;76.70
45969;DHT22;31676;40.444;-3.668;2023-03-23T07:29:29;22.80;76.70
45969;DHT22;31676;40.444;-3.668;2023-03-23T07:31:55;22.80;76.80
45969;DHT22;31676;40.444;-3.668;2023-03-23T07:34:21;22.80;76.70
45969;DHT22;31676;40.444;-3.668;2023-03-23T07:36:47;22.70;76.70
45969;DHT22;31676;40.444;-3.668;2023-03-23T07:39:13;22.70;76.70
45969;DHT22;31676;40.444;-3.668;2023-03-23T07:41:39;22.80;76.70
45969;DHT22;31676;40.444;-3.668;2023-03-23T07:44:05;22.80;76.70
45969;DHT22;31676;40.444;-3.668;2023-03-23T07:46:31;22.80;76.70
45969;DHT22;31676;40.444;-3.668;2023-03-23T07:48:57;22.70;76.70
45969;DHT22;31676;40.444;-3.668;2023-03-23T07:51:23;22.70;76.70
45969;DHT22;31676;40.444;-3.668;2023-03-23T07:53:50;22.70;76.60
45969;DHT22;31676;40.444;-3.668;2023-03-23T07:56:17;22.70;76.70
45969;DHT22;31676;40.444;-3.668;2023-03-23T07:58:45;22.70;76.70
45969;DHT22;31676;40.444;-3.668;2023-03-23T08:01:11;22.70;76.70
45969;DHT22;31676;40.444;-3.668;2023-03-23T08:03:37;22.80;76.70
45969;DHT22;31676;40.444;-3.668;2023-03-23T08:06:03;22.70;76.70
45969;DHT22;31676;40.444;-3.668;2023-03-23T08:08:29;22.70;76.70
45969;DHT22;31676;40.444;-3.668;2023-03-23T08:10:55;22.70;76.60
45969;DHT22;31676;40.444;-3.668;2023-03-23T08:13:21;22.70;76.60
45969;DHT22;31676;40.444;-3.668;2023-03-23T08:15:47;22.70;76.60
45969;DHT22;31676;40.444;-3.668;2023-03-23T08:18:13;22.70;76.60
45969;DHT22;31676;40.444;-3.668;2023-03-23T08:20:38;22.70;76.70
45969;DHT22;31676;40.444;-3.668;2023-03-23T08:23:05;22.70;76.60
45969;DHT22;31676;40.444;-3.668;2023-03-23T08:25:31;22.70;76.70
45969;DHT22;31676;40.444;-3.668;2023-03-23T08:27:58;22.70;76.70
45969;DHT22;31676;40.444;-3.668;2023-03-23T08:30:24;22.70;76.70
45969;DHT22;31676;40.444;-3.668;2023-03-23T08:32:51;22.70;76.60
45969;DHT22;31676;40.444;-3.668;2023-03-23T08:35:17;22.70;76.70
45969;DHT22;31676;40.444;-3.668;2023-03-23T08:37:43;22.70;76.70
45969;DHT22;31676;40.444;-3.668;2023-03-23T08:40:10;22.70;76.70
45969;DHT22;31676;40.444;-3.668;2023-03-23T08:42:40;22.70;76.70
45969;DHT22;31676;40.444;-3.668;2023-03-23T08:45:07;22.70;76.70
45969;DHT22;31676;40.444;-3.668;2023-03-23T08:47:34;22.70;76.70
45969;DHT22;31676;40.444;-3.668;2023-03-23T08:50:00;22.70;76.70
45969;DHT22;31676;40.444;-3.668;2023-03-23T08:52:27;22.70;76.70
45969;DHT22;31676;40.444;-3.668;2023-03-23T08:54:54;22.70;76.70
45969;DHT22;31676;40.444;-3.668;2023-03-23T08:57:19;22.70;76.70
45969;DHT22;31676;40.444;-3.668;2023-03-23T08:59:45;22.70;76.70
45969;DHT22;31676;40.444;-3.668;2023-03-23T09:02:11;22.70;76.60
45969;DHT22;31676;40.444;-3.668;2023-03-23T09:04:38;22.70;76.70
45969;DHT22;31676;40.444;-3.668;2023-03-23T09:07:04;22.70;76.70
45969;DHT22;31676;40.444;-3.668;2023-03-23T09:09:30;22.70;76.60
45969;DHT22;31676;40.444;-3.668;2023-03-23T09:11:55;22.70;76.60
45969;DHT22;31676;40.444;-3.668;2023-03-23T09:14:21;22.70;76.60
45969;DHT22;31676;40.444;-3.668;2023-03-23T09:16:47;22.70;76.60
45969;DHT22;31676;40.444;-3.668;2023-03-23T09:19:12;22.70;76.70
45969;DHT22;31676;40.444;-3.668;2023-03-23T09:21:38;22.70;76.70
45969;DHT22;31676;40.444;-3.668;2023-03-23T09:24:04;22.70;76.60
45969;DHT22;31676;40.444;-3.668;2023-03-23T09:26:30;22.70;76.60
45969;DHT22;31676;40.444;-3.668;2023-03-23T09:28:56;22.70;76.70
45969;DHT22;31676;40.444;-3.668;2023-03-23T09:31:22;22.70;76.70
45969;DHT22;31676;40.444;-3.668;2023-03-23T09:33:49;22.70;76.60
45969;DHT22;31676;40.444;-3.668;2023-03-23T09:36:18;22.70;76.60
45969;DHT22;31676;40.444;-3.668;2023-03-23T09:38:46;22.70;76.60
45969;DHT22;31676;40.444;-3.668;2023-03-23T09:41:21;22.70;76.70
45969;DHT22;31676;40.444;-3.668;2023-03-23T09:43:52;22.70;76.70
45969;DHT22;31676;40.444;-3.668;2023-03-23T09:46:33;22.60;76.60
45969;DHT22;31676;40.444;-3.668;2023-03-23T09:49:02;22.70;76.70
45969;DHT22;31676;40.444;-3.668;2023-03-23T09:51:42;22.70;76.60
45969;DHT22;31676;40.444;-3.668;2023-03-23T09:54:26;22.70;76.60
45969;DHT22;31676;40.444;-3.668;2023-03-23T09:56:52;22.70;76.70
45969;DHT22;31676;40.444;-3.668;2023-03-23T09:59:20;22.70;76.60
45969;DHT22;31676;40.444;-3.668;2023-03-23T10:01:49;22.70;76.70
45969;DHT22;31676;40.444;-3.668;2023-03-23T10:07:21;22.70;76.70
45969;DHT22;31676;40.444;-3.668;2023-03-23T10:09:48;22.70;76.70
45969;DHT22;31676;40.444;-3.668;2023-03-23T10:15:03;22.70;76.60
45969;DHT22;31676;40.444;-3.668;2023-03-23T10:20:15;22.70;76.60
45969;DHT22;31676;40.444;-3.668;2023-03-23T10:22:50;22.70;76.60
45969;DHT22;31676;40.444;-3.668;2023-03-23T10:25:19;22.70;76.60
45969;DHT22;31676;40.444;-3.668;2023-03-23T10:32:43;22.70;76.60
45969;DHT22;31676;40.444;-3.668;2023-03-23T10:35:11;22.70;76.60
45969;DHT22;31676;40.444;-3.668;2023-03-23T10:37:41;22.70;76.60
45969;DHT22;31676;40.444;-3.668;2023-03-23T10:40:12;22.70;76.60
45969;DHT22;31676;40.444;-3.668;2023-03-23T10:42:40;22.70;76.60
45969;DHT22;31676;40.444;-3.668;2023-03-23T10:45:49;22.70;76.50
45969;DHT22;31676;40.444;-3.668;2023-03-23T10:48:09;22.70;76.60
45969;DHT22;31676;40.444;-3.668;2023-03-23T10:50:36;22.70;76.60
45969;DHT22;31676;40.444;-3.668;2023-03-23T10:53:07;22.70;76.60
45969;DHT22;31676;40.444;-3.668;2023-03-23T10:55:39;22.70;76.60
45969;DHT22;31676;40.444;-3.668;2023-03-23T10:58:09;22.70;76.60
45969;DHT22;31676;40.444;-3.668;2023-03-23T11:00:45;22.70;76.50
45969;DHT22;31676;40.444;-3.668;2023-03-23T11:05:53;22.70;76.50
45969;DHT22;31676;40.444;-3.668;2023-03-23T11:08:25;22.70;76.50
45969;DHT22;31676;40.444;-3.668;2023-03-23T11:10:52;22.80;76.60
45969;DHT22;31676;40.444;-3.668;2023-03-23T11:13:19;22.70;76.50
45969;DHT22;31676;40.444;-3.668;2023-03-23T11:15:46;22.70;76.50
45969;DHT22;31676;40.444;-3.668;2023-03-23T11:18:18;22.80;76.60
45969;DHT22;31676;40.444;-3.668;2023-03-23T11:20:44;22.80;76.50
45969;DHT22;31676;40.444;-3.668;2023-03-23T11:23:18;22.80;76.60
45969;DHT22;31676;40.444;-3.668;2023-03-23T11:25:55;22.80;76.50
45969;DHT22;31676;40.444;-3.668;2023-03-23T11:28:22;22.80;76.50
45969;DHT22;31676;40.444;-3.668;2023-03-23T11:30:53;22.80;76.50
45969;DHT22;31676;40.444;-3.668;2023-03-23T11:33:19;22.80;76.50
45969;DHT22;31676;40.444;-3.668;2023-03-23T11:35:45;22.80;76.50
45969;DHT22;31676;40.444;-3.668;2023-03-23T11:38:18;22.80;76.50
45969;DHT22;31676;40.444;-3.668;2023-03-23T11:40:50;22.80;76.50
45969;DHT22;31676;40.444;-3.668;2023-03-23T11:43:22;22.80;76.50
45969;DHT22;31676;40.444;-3.668;2023-03-23T11:45:53;22.80;76.40
45969;DHT22;31676;40.444;-3.668;2023-03-23T11:48:38;22.80;76.40
45969;DHT22;31676;40.444;-3.668;2023-03-23T11:51:08;22.80;76.40
45969;DHT22;31676;40.444;-3.668;2023-03-23T11:54:23;22.80;76.40
45969;DHT22;31676;40.444;-3.668;2023-03-23T11:58:55;22.80;76.40
45969;DHT22;31676;40.444;-3.668;2023-03-23T12:06:57;22.80;76.40
45969;DHT22;31676;40.444;-3.668;2023-03-23T12:15:04;22.90;76.40
45969;DHT22;31676;40.444;-3.668;2023-03-23T12:17:37;22.90;76.40
45969;DHT22;31676;40.444;-3.668;2023-03-23T12:30:49;23.00;76.40
45969;DHT22;31676;40.444;-3.668;2023-03-23T12:33:27;22.90;76.30
45969;DHT22;31676;40.444;-3.668;2023-03-23T12:36:16;22.90;76.30
45969;DHT22;31676;40.444;-3.668;2023-03-23T12:38:54;23.00;76.30
45969;DHT22;31676;40.444;-3.668;2023-03-23T12:44:13;23.00;76.30
45969;DHT22;31676;40.444;-3.668;2023-03-23T12:49:45;23.00;76.30
45969;DHT22;31676;40.444;-3.668;2023-03-23T12:52:18;23.00;76.30
45969;DHT22;31676;40.444;-3.668;2023-03-23T12:54:46;23.00;76.30
45969;DHT22;31676;40.444;-3.668;2023-03-23T13:07:34;23.00;76.30
45969;DHT22;31676;40.444;-3.668;2023-03-23T13:12:29;23.00;76.30
45969;DHT22;31676;40.444;-3.668;2023-03-23T13:23:23;23.10;76.40
45969;DHT22;31676;40.444;-3.668;2023-03-23T13:28:23;23.10;76.40
45969;DHT22;31676;40.444;-3.668;2023-03-23T13:31:12;23.10;76.40
45969;DHT22;31676;40.444;-3.668;2023-03-23T13:33:39;23.10;76.40
45969;DHT22;31676;40.444;-3.668;2023-03-23T13:36:11;23.10;76.40
45969;DHT22;31676;40.444;-3.668;2023-03-23T13:38:38;23.10;76.40
45969;DHT22;31676;40.444;-3.668;2023-03-23T13:41:07;23.10;76.40
45969;DHT22;31676;40.444;-3.668;2023-03-23T13:43:35;23.10;76.40
45969;DHT22;31676;40.444;-3.668;2023-03-23T13:46:09;23.10;76.30
45969;DHT22;31676;40.444;-3.668;2023-03-23T13:48:42;23.10;76.40
45969;DHT22;31676;40.444;-3.668;2023-03-23T13:51:32;23.10;76.30
45969;DHT22;31676;40.444;-3.668;2023-03-23T13:54:06;23.10;76.30
45969;DHT22;31676;40.444;-3.668;2023-03-23T14:01:56;23.10;76.30
45969;DHT22;31676;40.444;-3.668;2023-03-23T14:04:22;23.20;76.30
45969;DHT22;31676;40.444;-3.668;2023-03-23T14:06:49;23.20;76.40
45969;DHT22;31676;40.444;-3.668;2023-03-23T14:09:17;23.20;76.30
45969;DHT22;31676;40.444;-3.668;2023-03-23T14:14:29;23.20;76.30
45969;DHT22;31676;40.444;-3.668;2023-03-23T14:17:11;23.10;76.20
45969;DHT22;31676;40.444;-3.668;2023-03-23T14:19:38;23.20;76.30
45969;DHT22;31676;40.444;-3.668;2023-03-23T14:22:04;23.20;76.20
45969;DHT22;31676;40.444;-3.668;2023-03-23T14:24:31;23.20;76.20
45969;DHT22;31676;40.444;-3.668;2023-03-23T14:29:38;23.20;76.30
45969;DHT22;31676;40.444;-3.668;2023-03-23T14:32:07;23.20;76.20
45969;DHT22;31676;40.444;-3.668;2023-03-23T14:34:34;23.20;76.20
45969;DHT22;31676;40.444;-3.668;2023-03-23T14:37:00;23.20;76.20
45969;DHT22;31676;40.444;-3.668;2023-03-23T14:41:55;23.20;76.20
45969;DHT22;31676;40.444;-3.668;2023-03-23T14:44:29;23.20;76.20
45969;DHT22;31676;40.444;-3.668;2023-03-23T14:46:55;23.20;76.20
45969;DHT22;31676;40.444;-3.668;2023-03-23T14:49:32;23.20;76.20
45969;DHT22;31676;40.444;-3.668;2023-03-23T14:52:02;23.20;76.20
45969;DHT22;31676;40.444;-3.668;2023-03-23T14:54:28;23.30;76.30
45969;DHT22;31676;40.444;-3.668;2023-03-23T14:56:54;23.30;76.20
45969;DHT22;31676;40.444;-3.668;2023-03-23T14:59:20;23.30;76.20
45969;DHT22;31676;40.444;-3.668;2023-03-23T15:01:46;23.30;76.20
45969;DHT22;31676;40.444;-3.668;2023-03-23T15:04:15;23.30;76.20
45969;DHT22;31676;40.444;-3.668;2023-03-23T15:06:43;23.30;76.20
45969;DHT22;31676;40.444;-3.668;2023-03-23T15:09:12;23.30;76.20
45969;DHT22;31676;40.444;-3.668;2023-03-23T15:11:39;23.30;76.20
45969;DHT22;31676;40.444;-3.668;2023-03-23T15:14:10;23.30;76.10
45969;DHT22;31676;40.444;-3.668;2023-03-23T15:16:46;23.30;76.20
45969;DHT22;31676;40.444;-3.668;2023-03-23T15:19:16;23.30;76.20
45969;DHT22;31676;40.444;-3.668;2023-03-23T15:22:26;23.30;76.10
45969;DHT22;31676;40.444;-3.668;2023-03-23T15:29:46;23.30;76.10
45969;DHT22;31676;40.444;-3.668;2023-03-23T15:32:11;23.30;76.10
45969;DHT22;31676;40.444;-3.668;2023-03-23T15:34:37;23.40;76.20
45969;DHT22;31676;40.444;-3.668;2023-03-23T15:37:27;23.30;76.10
45969;DHT22;31676;40.444;-3.668;2023-03-23T15:39:50;23.40;76.20
45969;DHT22;31676;40.444;-3.668;2023-03-23T15:42:28;23.40;76.20
45969;DHT22;31676;40.444;-3.668;2023-03-23T15:45:37;23.40;76.10
45969;DHT22;31676;40.444;-3.668;2023-03-23T15:47:48;23.40;76.20
45969;DHT22;31676;40.444;-3.668;2023-03-23T15:52:40;23.40;76.10
45969;DHT22;31676;40.444;-3.668;2023-03-23T15:58:00;23.40;76.10
45969;DHT22;31676;40.444;-3.668;2023-03-23T16:00:30;23.40;76.10
45969;DHT22;31676;40.444;-3.668;2023-03-23T16:03:00;23.40;76.10
45969;DHT22;31676;40.444;-3.668;2023-03-23T16:05:26;23.40;76.10
45969;DHT22;31676;40.444;-3.668;2023-03-23T16:07:52;23.40;76.10
45969;DHT22;31676;40.444;-3.668;2023-03-23T16:10:20;23.40;76.10
45969;DHT22;31676;40.444;-3.668;2023-03-23T16:12:45;23.40;76.10
45969;DHT22;31676;40.444;-3.668;2023-03-23T16:15:12;23.40;76.00
45969;DHT22;31676;40.444;-3.668;2023-03-23T16:17:37;23.50;76.10
45969;DHT22;31676;40.444;-3.668;2023-03-23T16:20:16;23.40;76.00
45969;DHT22;31676;40.444;-3.668;2023-03-23T16:22:43;23.50;76.10
45969;DHT22;31676;40.444;-3.668;2023-03-23T16:25:10;23.50;76.10
45969;DHT22;31676;40.444;-3.668;2023-03-23T16:27:36;23.50;76.10
45969;DHT22;31676;40.444;-3.668;2023-03-23T16:30:16;23.50;76.10
45969;DHT22;31676;40.444;-3.668;2023-03-23T16:32:42;23.50;76.10
45969;DHT22;31676;40.444;-3.668;2023-03-23T16:35:08;23.50;76.10
45969;DHT22;31676;40.444;-3.668;2023-03-23T16:37:34;23.50;76.10
45969;DHT22;31676;40.444;-3.668;2023-03-23T16:40:01;23.50;76.10
45969;DHT22;31676;40.444;-3.668;2023-03-23T16:42:27;23.50;76.10
45969;DHT22;31676;40.444;-3.668;2023-03-23T16:44:53;23.50;76.10
45969;DHT22;31676;40.444;-3.668;2023-03-23T16:47:19;23.50;76.00
45969;DHT22;31676;40.444;-3.668;2023-03-23T16:49:48;23.60;76.10
45969;DHT22;31676;40.444;-3.668;2023-03-23T16:52:15;23.50;76.10
45969;DHT22;31676;40.444;-3.668;2023-03-23T16:54:40;23.60;76.10
45969;DHT22;31676;40.444;-3.668;2023-03-23T16:57:06;23.60;76.00
45969;DHT22;31676;40.444;-3.668;2023-03-23T16:59:32;23.60;76.00
45969;DHT22;31676;40.444;-3.668;2023-03-23T17:01:58;23.50;76.00
45969;DHT22;31676;40.444;-3.668;2023-03-23T17:04:31;23.50;76.00
45969;DHT22;31676;40.444;-3.668;2023-03-23T17:06:57;23.50;76.00
45969;DHT22;31676;40.444;-3.668;2023-03-23T17:09:26;23.60;76.10
45969;DHT22;31676;40.444;-3.668;2023-03-23T17:11:52;23.60;76.00
45969;DHT22;31676;40.444;-3.668;2023-03-23T17:14:19;23.60;76.00
45969;DHT22;31676;40.444;-3.668;2023-03-23T17:16:45;23.60;76.00